sensor_id;sensor_type;location;lat;lon;timestamp;P1;durP1;ratioP1;P2;durP2;ratioP2
19651;SDS011;9974;52.146;14.668;2023-08-20T00:00:28;11.82;;;7.85;;
19651;SDS011;9974;52.146;14.668;2023-08-20T00:02:57;13.73;;;8.73;;
19651;SDS011;9974;52.146;14.668;2023-08-20T00:05:29;10.50;;;8.35;;
19651;SDS011;9974;52.146;14.668;2023-08-20T00:07:56;9.90;;;7.63;;
19651;SDS011;9974;52.146;14.668;2023-08-20T00:10:21;14.02;;;9.13;;
19651;SDS011;9974;52.146;14.668;2023-08-20T00:12:47;12.63;;;8.88;;
19651;SDS011;9974;52.146;14.668;2023-08-20T00:15:13;10.73;;;8.85;;
19651;SDS011;9974;52.146;14.668;2023-08-20T00:17:39;10.38;;;8.38;;
19651;SDS011;9974;52.146;14.668;2023-08-20T00:20:07;11.38;;;9.07;;
19651;SDS011;9974;52.146;14.668;2023-08-20T00:22:35;12.82;;;9.65;;
19651;SDS011;9974;52.146;14.668;2023-08-20T00:25:02;10.63;;;8.90;;
19651;SDS011;9974;52.146;14.668;2023-08-20T00:27:30;12.02;;;9.27;;
19651;SDS011;9974;52.146;14.668;2023-08-20T00:29:56;12.48;;;9.20;;
19651;SDS011;9974;52.146;14.668;2023-08-20T00:32:22;12.10;;;8.65;;
19651;SDS011;9974;52.146;14.668;2023-08-20T00:34:48;11.65;;;8.55;;
19651;SDS011;9974;52.146;14.668;2023-08-20T00:37:14;11.43;;;9.02;;
19651;SDS011;9974;52.146;14.668;2023-08-20T00:39:39;10.77;;;9.10;;
19651;SDS011;9974;52.146;14.668;2023-08-20T00:42:05;11.20;;;8.82;;
19651;SDS011;9974;52.146;14.668;2023-08-20T00:44:32;11.93;;;9.93;;
19651;SDS011;9974;52.146;14.668;2023-08-20T00:46:59;12.80;;;9.30;;
19651;SDS011;9974;52.146;14.668;2023-08-20T00:49:27;13.75;;;9.93;;
19651;SDS011;9974;52.146;14.668;2023-08-20T00:51:54;11.00;;;9.50;;
19651;SDS011;9974;52.146;14.668;2023-08-20T00:54:21;12.18;;;9.35;;
19651;SDS011;9974;52.146;14.668;2023-08-20T00:56:48;9.98;;;8.43;;
19651;SDS011;9974;52.146;14.668;2023-08-20T00:59:15;14.00;;;9.75;;
19651;SDS011;9974;52.146;14.668;2023-08-20T01:01:42;13.10;;;8.70;;
19651;SDS011;9974;52.146;14.668;2023-08-20T01:04:08;12.57;;;9.30;;
19651;SDS011;9974;52.146;14.668;2023-08-20T01:06:44;13.45;;;10.10;;
19651;SDS011;9974;52.146;14.668;2023-08-20T01:09:30;13.27;;;9.02;;
19651;SDS011;9974;52.146;14.668;2023-08-20T01:12:22;11.95;;;9.45;;
19651;SDS011;9974;52.146;14.668;2023-08-20T01:14:49;10.73;;;8.30;;
19651;SDS011;9974;52.146;14.668;2023-08-20T01:17:15;12.38;;;9.05;;
19651;SDS011;9974;52.146;14.668;2023-08-20T01:19:40;10.23;;;8.55;;
19651;SDS011;9974;52.146;14.668;2023-08-20T01:22:14;12.80;;;8.98;;
19651;SDS011;9974;52.146;14.668;2023-08-20T01:30:49;12.88;;;9.35;;
19651;SDS011;9974;52.146;14.668;2023-08-20T01:33:17;12.05;;;9.57;;
19651;SDS011;9974;52.146;14.668;2023-08-20T01:35:44;11.30;;;9.25;;
19651;SDS011;9974;52.146;14.668;2023-08-20T01:38:09;13.48;;;9.90;;
19651;SDS011;9974;52.146;14.668;2023-08-20T01:40:35;11.25;;;9.85;;
19651;SDS011;9974;52.146;14.668;2023-08-20T01:43:01;11.23;;;8.68;;
19651;SDS011;9974;52.146;14.668;2023-08-20T01:45:27;13.73;;;10.00;;
19651;SDS011;9974;52.146;14.668;2023-08-20T01:47:52;13.75;;;9.57;;
19651;SDS011;9974;52.146;14.668;2023-08-20T01:50:18;12.88;;;10.70;;
19651;SDS011;9974;52.146;14.668;2023-08-20T01:52:44;12.15;;;10.02;;
19651;SDS011;9974;52.146;14.668;2023-08-20T01:55:10;12.60;;;10.15;;
19651;SDS011;9974;52.146;14.668;2023-08-20T01:57:36;13.15;;;10.20;;
19651;SDS011;9974;52.146;14.668;2023-08-20T02:00:02;12.38;;;9.98;;
19651;SDS011;9974;52.146;14.668;2023-08-20T02:02:30;12.32;;;9.63;;
19651;SDS011;9974;52.146;14.668;2023-08-20T02:04:56;15.95;;;10.10;;
19651;SDS011;9974;52.146;14.668;2023-08-20T02:07:21;15.02;;;10.60;;
19651;SDS011;9974;52.146;14.668;2023-08-20T02:09:47;12.25;;;9.85;;
19651;SDS011;9974;52.146;14.668;2023-08-20T02:12:13;13.43;;;10.15;;
19651;SDS011;9974;52.146;14.668;2023-08-20T02:14:39;14.82;;;11.48;;
19651;SDS011;9974;52.146;14.668;2023-08-20T02:17:05;14.85;;;10.93;;
19651;SDS011;9974;52.146;14.668;2023-08-20T02:19:31;14.80;;;11.98;;
19651;SDS011;9974;52.146;14.668;2023-08-20T02:21:57;14.70;;;10.02;;
19651;SDS011;9974;52.146;14.668;2023-08-20T02:24:23;16.05;;;11.23;;
19651;SDS011;9974;52.146;14.668;2023-08-20T02:26:48;14.75;;;11.25;;
19651;SDS011;9974;52.146;14.668;2023-08-20T02:29:14;15.77;;;11.63;;
19651;SDS011;9974;52.146;14.668;2023-08-20T02:31:40;18.20;;;12.20;;
19651;SDS011;9974;52.146;14.668;2023-08-20T02:34:05;14.02;;;11.90;;
19651;SDS011;9974;52.146;14.668;2023-08-20T02:36:31;14.75;;;11.73;;
19651;SDS011;9974;52.146;14.668;2023-08-20T02:38:57;14.10;;;12.10;;
19651;SDS011;9974;52.146;14.668;2023-08-20T02:41:23;15.35;;;11.98;;
19651;SDS011;9974;52.146;14.668;2023-08-20T02:43:48;16.20;;;12.07;;
19651;SDS011;9974;52.146;14.668;2023-08-20T02:46:14;14.60;;;11.23;;
19651;SDS011;9974;52.146;14.668;2023-08-20T02:48:40;14.77;;;11.65;;
19651;SDS011;9974;52.146;14.668;2023-08-20T02:51:05;15.25;;;12.27;;
19651;SDS011;9974;52.146;14.668;2023-08-20T02:53:31;15.10;;;11.48;;
19651;SDS011;9974;52.146;14.668;2023-08-20T02:55:57;14.05;;;10.68;;
19651;SDS011;9974;52.146;14.668;2023-08-20T02:58:23;14.80;;;11.75;;
19651;SDS011;9974;52.146;14.668;2023-08-20T03:00:49;14.10;;;11.60;;
19651;SDS011;9974;52.146;14.668;2023-08-20T03:03:15;15.07;;;11.02;;
19651;SDS011;9974;52.146;14.668;2023-08-20T03:05:41;13.77;;;10.50;;
19651;SDS011;9974;52.146;14.668;2023-08-20T03:08:07;13.38;;;10.95;;
19651;SDS011;9974;52.146;14.668;2023-08-20T03:10:33;14.73;;;11.55;;
19651;SDS011;9974;52.146;14.668;2023-08-20T03:13:00;12.60;;;9.70;;
19651;SDS011;9974;52.146;14.668;2023-08-20T03:15:30;16.10;;;10.88;;
19651;SDS011;9974;52.146;14.668;2023-08-20T03:17:56;13.57;;;11.10;;
19651;SDS011;9974;52.146;14.668;2023-08-20T03:20:22;12.30;;;10.70;;
19651;SDS011;9974;52.146;14.668;2023-08-20T03:22:47;13.23;;;10.20;;
19651;SDS011;9974;52.146;14.668;2023-08-20T03:25:13;15.43;;;11.02;;
19651;SDS011;9974;52.146;14.668;2023-08-20T03:27:39;18.95;;;10.77;;
19651;SDS011;9974;52.146;14.668;2023-08-20T03:30:05;15.00;;;11.25;;
19651;SDS011;9974;52.146;14.668;2023-08-20T03:32:31;15.73;;;11.38;;
19651;SDS011;9974;52.146;14.668;2023-08-20T03:34:57;13.93;;;10.32;;
19651;SDS011;9974;52.146;14.668;2023-08-20T03:37:24;19.15;;;10.23;;
19651;SDS011;9974;52.146;14.668;2023-08-20T03:39:53;14.73;;;11.10;;
19651;SDS011;9974;52.146;14.668;2023-08-20T03:42:19;12.95;;;10.50;;
19651;SDS011;9974;52.146;14.668;2023-08-20T03:44:44;18.05;;;11.88;;
19651;SDS011;9974;52.146;14.668;2023-08-20T03:47:10;14.35;;;10.73;;
19651;SDS011;9974;52.146;14.668;2023-08-20T03:49:36;12.50;;;10.38;;
19651;SDS011;9974;52.146;14.668;2023-08-20T03:52:02;14.60;;;10.57;;
19651;SDS011;9974;52.146;14.668;2023-08-20T03:54:29;13.90;;;10.75;;
19651;SDS011;9974;52.146;14.668;2023-08-20T03:56:55;14.63;;;10.98;;
19651;SDS011;9974;52.146;14.668;2023-08-20T03:59:20;12.77;;;10.38;;
19651;SDS011;9974;52.146;14.668;2023-08-20T04:01:46;12.07;;;10.10;;
19651;SDS011;9974;52.146;14.668;2023-08-20T04:04:13;14.88;;;12.00;;
19651;SDS011;9974;52.146;14.668;2023-08-20T04:06:38;13.30;;;10.27;;
19651;SDS011;9974;52.146;14.668;2023-08-20T04:09:04;13.30;;;10.65;;
19651;SDS011;9974;52.146;14.668;2023-08-20T04:11:31;13.05;;;10.73;;
19651;SDS011;9974;52.146;14.668;2023-08-20T04:13:57;17.08;;;11.40;;
19651;SDS011;9974;52.146;14.668;2023-08-20T04:16:22;13.70;;;10.73;;
19651;SDS011;9974;52.146;14.668;2023-08-20T04:18:48;13.20;;;9.82;;
19651;SDS011;9974;52.146;14.668;2023-08-20T04:21:14;13.38;;;10.65;;
19651;SDS011;9974;52.146;14.668;2023-08-20T04:23:40;16.13;;;11.75;;
19651;SDS011;9974;52.146;14.668;2023-08-20T04:26:06;13.95;;;11.27;;
19651;SDS011;9974;52.146;14.668;2023-08-20T04:28:32;14.90;;;10.60;;
19651;SDS011;9974;52.146;14.668;2023-08-20T04:30:58;11.90;;;9.93;;
19651;SDS011;9974;52.146;14.668;2023-08-20T04:33:25;12.30;;;10.10;;
19651;SDS011;9974;52.146;14.668;2023-08-20T04:35:51;13.10;;;9.95;;
19651;SDS011;9974;52.146;14.668;2023-08-20T04:38:17;10.65;;;9.38;;
19651;SDS011;9974;52.146;14.668;2023-08-20T04:40:45;13.20;;;8.82;;
19651;SDS011;9974;52.146;14.668;2023-08-20T04:43:12;12.90;;;9.40;;
19651;SDS011;9974;52.146;14.668;2023-08-20T04:45:38;12.52;;;9.65;;
19651;SDS011;9974;52.146;14.668;2023-08-20T04:48:04;12.95;;;10.15;;
19651;SDS011;9974;52.146;14.668;2023-08-20T04:50:30;13.30;;;10.60;;
19651;SDS011;9974;52.146;14.668;2023-08-20T04:52:56;14.27;;;11.25;;
19651;SDS011;9974;52.146;14.668;2023-08-20T04:55:24;13.90;;;11.15;;
19651;SDS011;9974;52.146;14.668;2023-08-20T04:57:51;13.80;;;10.52;;
19651;SDS011;9974;52.146;14.668;2023-08-20T05:00:17;15.95;;;12.07;;
19651;SDS011;9974;52.146;14.668;2023-08-20T05:02:42;14.68;;;11.25;;
19651;SDS011;9974;52.146;14.668;2023-08-20T05:05:08;12.25;;;10.07;;
19651;SDS011;9974;52.146;14.668;2023-08-20T05:07:35;14.80;;;11.68;;
19651;SDS011;9974;52.146;14.668;2023-08-20T05:10:01;15.93;;;10.02;;
19651;SDS011;9974;52.146;14.668;2023-08-20T05:12:27;14.55;;;11.88;;
19651;SDS011;9974;52.146;14.668;2023-08-20T05:14:53;13.93;;;11.90;;
19651;SDS011;9974;52.146;14.668;2023-08-20T05:17:18;15.90;;;11.85;;
19651;SDS011;9974;52.146;14.668;2023-08-20T05:19:44;13.85;;;10.75;;
19651;SDS011;9974;52.146;14.668;2023-08-20T05:22:10;14.85;;;11.15;;
19651;SDS011;9974;52.146;14.668;2023-08-20T05:24:36;14.07;;;10.68;;
19651;SDS011;9974;52.146;14.668;2023-08-20T05:29:38;15.70;;;11.20;;
19651;SDS011;9974;52.146;14.668;2023-08-20T05:32:03;17.15;;;12.55;;
19651;SDS011;9974;52.146;14.668;2023-08-20T05:34:29;20.27;;;14.05;;
19651;SDS011;9974;52.146;14.668;2023-08-20T05:36:55;17.77;;;13.05;;
19651;SDS011;9974;52.146;14.668;2023-08-20T05:39:21;18.85;;;12.55;;
19651;SDS011;9974;52.146;14.668;2023-08-20T05:41:48;17.63;;;11.80;;
19651;SDS011;9974;52.146;14.668;2023-08-20T05:44:14;17.98;;;12.55;;
19651;SDS011;9974;52.146;14.668;2023-08-20T05:46:39;19.05;;;12.15;;
19651;SDS011;9974;52.146;14.668;2023-08-20T05:49:05;16.45;;;12.20;;
19651;SDS011;9974;52.146;14.668;2023-08-20T05:51:31;20.52;;;12.10;;
19651;SDS011;9974;52.146;14.668;2023-08-20T05:53:57;17.23;;;12.35;;
19651;SDS011;9974;52.146;14.668;2023-08-20T05:56:23;17.88;;;11.35;;
19651;SDS011;9974;52.146;14.668;2023-08-20T05:58:48;15.68;;;10.85;;
19651;SDS011;9974;52.146;14.668;2023-08-20T06:01:14;14.15;;;10.38;;
19651;SDS011;9974;52.146;14.668;2023-08-20T06:03:39;13.27;;;11.25;;
19651;SDS011;9974;52.146;14.668;2023-08-20T06:06:05;14.07;;;11.18;;
19651;SDS011;9974;52.146;14.668;2023-08-20T06:08:31;13.95;;;10.65;;
19651;SDS011;9974;52.146;14.668;2023-08-20T06:10:57;17.85;;;12.18;;
19651;SDS011;9974;52.146;14.668;2023-08-20T06:13:23;17.10;;;10.20;;
19651;SDS011;9974;52.146;14.668;2023-08-20T06:15:49;17.17;;;10.15;;
19651;SDS011;9974;52.146;14.668;2023-08-20T06:18:14;14.60;;;9.80;;
19651;SDS011;9974;52.146;14.668;2023-08-20T06:20:40;11.65;;;9.45;;
19651;SDS011;9974;52.146;14.668;2023-08-20T06:23:06;12.98;;;9.82;;
19651;SDS011;9974;52.146;14.668;2023-08-20T06:25:31;14.88;;;9.57;;
19651;SDS011;9974;52.146;14.668;2023-08-20T06:27:57;13.23;;;9.45;;
19651;SDS011;9974;52.146;14.668;2023-08-20T06:30:23;14.30;;;9.80;;
19651;SDS011;9974;52.146;14.668;2023-08-20T06:32:48;11.63;;;9.38;;
19651;SDS011;9974;52.146;14.668;2023-08-20T06:35:14;10.13;;;8.50;;
19651;SDS011;9974;52.146;14.668;2023-08-20T06:37:40;12.77;;;10.18;;
19651;SDS011;9974;52.146;14.668;2023-08-20T06:40:06;12.90;;;9.00;;
19651;SDS011;9974;52.146;14.668;2023-08-20T06:42:32;11.32;;;9.70;;
19651;SDS011;9974;52.146;14.668;2023-08-20T06:44:58;13.85;;;8.98;;
19651;SDS011;9974;52.146;14.668;2023-08-20T06:47:24;13.32;;;9.40;;
19651;SDS011;9974;52.146;14.668;2023-08-20T06:49:51;13.27;;;9.95;;
19651;SDS011;9974;52.146;14.668;2023-08-20T06:52:16;11.13;;;8.98;;
19651;SDS011;9974;52.146;14.668;2023-08-20T06:54:43;13.32;;;10.35;;
19651;SDS011;9974;52.146;14.668;2023-08-20T06:57:09;12.68;;;9.45;;
19651;SDS011;9974;52.146;14.668;2023-08-20T06:59:35;11.90;;;9.80;;
19651;SDS011;9974;52.146;14.668;2023-08-20T07:02:01;11.90;;;8.90;;
19651;SDS011;9974;52.146;14.668;2023-08-20T07:04:28;11.05;;;8.75;;
19651;SDS011;9974;52.146;14.668;2023-08-20T07:06:54;10.63;;;8.73;;
19651;SDS011;9974;52.146;14.668;2023-08-20T07:09:19;12.63;;;8.32;;
19651;SDS011;9974;52.146;14.668;2023-08-20T07:11:45;10.60;;;8.90;;
19651;SDS011;9974;52.146;14.668;2023-08-20T07:14:11;11.10;;;8.43;;
19651;SDS011;9974;52.146;14.668;2023-08-20T07:16:36;10.75;;;7.78;;
19651;SDS011;9974;52.146;14.668;2023-08-20T07:19:02;9.93;;;8.32;;
19651;SDS011;9974;52.146;14.668;2023-08-20T07:21:28;9.30;;;7.22;;
19651;SDS011;9974;52.146;14.668;2023-08-20T07:23:53;9.48;;;7.88;;
19651;SDS011;9974;52.146;14.668;2023-08-20T07:26:19;10.05;;;7.60;;
19651;SDS011;9974;52.146;14.668;2023-08-20T07:28:45;12.18;;;8.57;;
19651;SDS011;9974;52.146;14.668;2023-08-20T07:31:23;13.20;;;8.35;;
19651;SDS011;9974;52.146;14.668;2023-08-20T07:33:50;12.00;;;8.18;;
19651;SDS011;9974;52.146;14.668;2023-08-20T07:36:17;10.20;;;7.55;;
19651;SDS011;9974;52.146;14.668;2023-08-20T07:38:44;9.75;;;7.30;;
19651;SDS011;9974;52.146;14.668;2023-08-20T07:41:10;9.57;;;7.88;;
19651;SDS011;9974;52.146;14.668;2023-08-20T07:43:37;11.23;;;8.48;;
19651;SDS011;9974;52.146;14.668;2023-08-20T07:46:04;10.32;;;7.93;;
19651;SDS011;9974;52.146;14.668;2023-08-20T07:48:30;14.63;;;7.68;;
19651;SDS011;9974;52.146;14.668;2023-08-20T07:50:56;11.88;;;8.52;;
19651;SDS011;9974;52.146;14.668;2023-08-20T07:53:22;9.27;;;7.43;;
19651;SDS011;9974;52.146;14.668;2023-08-20T07:55:48;9.60;;;7.25;;
19651;SDS011;9974;52.146;14.668;2023-08-20T07:58:14;8.20;;;7.28;;
19651;SDS011;9974;52.146;14.668;2023-08-20T08:00:39;9.48;;;7.53;;
19651;SDS011;9974;52.146;14.668;2023-08-20T08:03:05;9.82;;;7.88;;
19651;SDS011;9974;52.146;14.668;2023-08-20T08:05:31;9.88;;;7.35;;
19651;SDS011;9974;52.146;14.668;2023-08-20T08:07:56;10.60;;;8.30;;
19651;SDS011;9974;52.146;14.668;2023-08-20T08:10:23;9.02;;;7.82;;
19651;SDS011;9974;52.146;14.668;2023-08-20T08:12:48;8.73;;;7.05;;
19651;SDS011;9974;52.146;14.668;2023-08-20T08:15:14;10.55;;;8.05;;
19651;SDS011;9974;52.146;14.668;2023-08-20T08:17:40;8.82;;;7.28;;
19651;SDS011;9974;52.146;14.668;2023-08-20T08:20:06;9.90;;;7.82;;
19651;SDS011;9974;52.146;14.668;2023-08-20T08:22:31;11.38;;;7.57;;
19651;SDS011;9974;52.146;14.668;2023-08-20T08:24:57;10.68;;;7.55;;
19651;SDS011;9974;52.146;14.668;2023-08-20T08:27:23;10.35;;;7.97;;
19651;SDS011;9974;52.146;14.668;2023-08-20T08:29:50;13.50;;;8.40;;
19651;SDS011;9974;52.146;14.668;2023-08-20T08:32:16;11.07;;;6.63;;
19651;SDS011;9974;52.146;14.668;2023-08-20T08:34:41;9.80;;;6.95;;
19651;SDS011;9974;52.146;14.668;2023-08-20T08:37:07;10.93;;;7.97;;
19651;SDS011;9974;52.146;14.668;2023-08-20T08:39:33;9.45;;;7.85;;
19651;SDS011;9974;52.146;14.668;2023-08-20T08:42:00;13.30;;;8.02;;
19651;SDS011;9974;52.146;14.668;2023-08-20T08:44:30;9.85;;;7.05;;
19651;SDS011;9974;52.146;14.668;2023-08-20T08:47:01;8.80;;;7.30;;
19651;SDS011;9974;52.146;14.668;2023-08-20T08:49:28;9.82;;;8.13;;
19651;SDS011;9974;52.146;14.668;2023-08-20T08:51:57;10.82;;;7.72;;
19651;SDS011;9974;52.146;14.668;2023-08-20T08:54:23;8.85;;;7.63;;
19651;SDS011;9974;52.146;14.668;2023-08-20T08:56:49;10.88;;;7.28;;
19651;SDS011;9974;52.146;14.668;2023-08-20T08:59:15;10.63;;;7.15;;
19651;SDS011;9974;52.146;14.668;2023-08-20T09:01:41;10.13;;;7.40;;
19651;SDS011;9974;52.146;14.668;2023-08-20T09:04:07;9.60;;;7.25;;
19651;SDS011;9974;52.146;14.668;2023-08-20T09:06:53;10.25;;;8.13;;
19651;SDS011;9974;52.146;14.668;2023-08-20T09:09:21;10.57;;;7.72;;
19651;SDS011;9974;52.146;14.668;2023-08-20T09:11:47;8.95;;;7.28;;
19651;SDS011;9974;52.146;14.668;2023-08-20T09:14:23;10.40;;;7.85;;
19651;SDS011;9974;52.146;14.668;2023-08-20T09:16:58;8.60;;;7.40;;
19651;SDS011;9974;52.146;14.668;2023-08-20T09:19:29;8.68;;;7.22;;
19651;SDS011;9974;52.146;14.668;2023-08-20T09:21:58;10.65;;;7.05;;
19651;SDS011;9974;52.146;14.668;2023-08-20T09:24:25;9.13;;;6.25;;
19651;SDS011;9974;52.146;14.668;2023-08-20T09:26:58;11.07;;;6.82;;
19651;SDS011;9974;52.146;14.668;2023-08-20T09:29:26;9.70;;;6.70;;
19651;SDS011;9974;52.146;14.668;2023-08-20T09:31:59;8.95;;;6.45;;
19651;SDS011;9974;52.146;14.668;2023-08-20T09:34:35;10.63;;;6.88;;
19651;SDS011;9974;52.146;14.668;2023-08-20T09:37:03;10.68;;;6.18;;
19651;SDS011;9974;52.146;14.668;2023-08-20T09:39:29;9.05;;;6.85;;
19651;SDS011;9974;52.146;14.668;2023-08-20T09:41:54;8.35;;;6.00;;
19651;SDS011;9974;52.146;14.668;2023-08-20T09:44:22;8.38;;;6.20;;
19651;SDS011;9974;52.146;14.668;2023-08-20T09:46:49;8.13;;;5.32;;
19651;SDS011;9974;52.146;14.668;2023-08-20T09:49:15;9.30;;;6.03;;
19651;SDS011;9974;52.146;14.668;2023-08-20T09:51:44;8.18;;;6.15;;
19651;SDS011;9974;52.146;14.668;2023-08-20T09:54:19;8.82;;;6.35;;
19651;SDS011;9974;52.146;14.668;2023-08-20T09:56:54;9.27;;;6.50;;
19651;SDS011;9974;52.146;14.668;2023-08-20T09:59:23;9.02;;;6.20;;
19651;SDS011;9974;52.146;14.668;2023-08-20T10:01:49;7.68;;;5.90;;
19651;SDS011;9974;52.146;14.668;2023-08-20T10:04:16;6.93;;;5.03;;
19651;SDS011;9974;52.146;14.668;2023-08-20T10:06:43;8.02;;;6.28;;
19651;SDS011;9974;52.146;14.668;2023-08-20T10:09:09;8.10;;;5.70;;
19651;SDS011;9974;52.146;14.668;2023-08-20T10:11:35;7.72;;;6.18;;
19651;SDS011;9974;52.146;14.668;2023-08-20T10:14:02;7.93;;;5.43;;
19651;SDS011;9974;52.146;14.668;2023-08-20T10:16:28;6.95;;;5.45;;
19651;SDS011;9974;52.146;14.668;2023-08-20T10:18:54;5.97;;;4.78;;
19651;SDS011;9974;52.146;14.668;2023-08-20T10:21:24;7.80;;;4.93;;
19651;SDS011;9974;52.146;14.668;2023-08-20T10:23:50;8.60;;;4.53;;
19651;SDS011;9974;52.146;14.668;2023-08-20T10:26:15;5.30;;;4.47;;
19651;SDS011;9974;52.146;14.668;2023-08-20T10:28:46;7.30;;;5.28;;
19651;SDS011;9974;52.146;14.668;2023-08-20T10:31:12;7.40;;;4.65;;
19651;SDS011;9974;52.146;14.668;2023-08-20T10:36:16;7.40;;;4.35;;
19651;SDS011;9974;52.146;14.668;2023-08-20T10:38:47;8.15;;;4.70;;
19651;SDS011;9974;52.146;14.668;2023-08-20T10:41:14;5.22;;;3.92;;
19651;SDS011;9974;52.146;14.668;2023-08-20T10:43:47;5.25;;;3.72;;
19651;SDS011;9974;52.146;14.668;2023-08-20T10:48:58;7.50;;;5.68;;
19651;SDS011;9974;52.146;14.668;2023-08-20T10:51:33;6.38;;;4.85;;
19651;SDS011;9974;52.146;14.668;2023-08-20T10:54:04;6.38;;;4.72;;
19651;SDS011;9974;52.146;14.668;2023-08-20T10:59:15;6.75;;;5.15;;
19651;SDS011;9974;52.146;14.668;2023-08-20T11:01:50;6.75;;;4.38;;
19651;SDS011;9974;52.146;14.668;2023-08-20T11:04:20;6.47;;;4.25;;
19651;SDS011;9974;52.146;14.668;2023-08-20T11:06:55;4.60;;;3.63;;
19651;SDS011;9974;52.146;14.668;2023-08-20T11:09:22;7.63;;;5.13;;
19651;SDS011;9974;52.146;14.668;2023-08-20T11:11:50;5.35;;;4.05;;
19651;SDS011;9974;52.146;14.668;2023-08-20T11:14:17;5.72;;;4.15;;
19651;SDS011;9974;52.146;14.668;2023-08-20T11:16:45;6.32;;;4.47;;
19651;SDS011;9974;52.146;14.668;2023-08-20T11:19:12;5.95;;;4.30;;
19651;SDS011;9974;52.146;14.668;2023-08-20T11:21:38;5.50;;;4.15;;
19651;SDS011;9974;52.146;14.668;2023-08-20T11:24:06;7.28;;;4.50;;
19651;SDS011;9974;52.146;14.668;2023-08-20T11:26:33;6.25;;;4.35;;
19651;SDS011;9974;52.146;14.668;2023-08-20T11:29:00;6.35;;;4.70;;
19651;SDS011;9974;52.146;14.668;2023-08-20T11:31:46;6.25;;;4.85;;
19651;SDS011;9974;52.146;14.668;2023-08-20T11:34:13;5.05;;;4.35;;
19651;SDS011;9974;52.146;14.668;2023-08-20T11:36:39;9.65;;;5.78;;
19651;SDS011;9974;52.146;14.668;2023-08-20T11:39:05;8.82;;;4.35;;
19651;SDS011;9974;52.146;14.668;2023-08-20T11:41:34;6.97;;;5.03;;
19651;SDS011;9974;52.146;14.668;2023-08-20T11:44:01;8.13;;;5.18;;
19651;SDS011;9974;52.146;14.668;2023-08-20T11:46:28;6.55;;;4.75;;
19651;SDS011;9974;52.146;14.668;2023-08-20T11:49:04;6.55;;;4.80;;
19651;SDS011;9974;52.146;14.668;2023-08-20T11:51:35;7.28;;;5.00;;
19651;SDS011;9974;52.146;14.668;2023-08-20T11:54:02;6.60;;;4.32;;
19651;SDS011;9974;52.146;14.668;2023-08-20T11:56:30;8.10;;;4.78;;
19651;SDS011;9974;52.146;14.668;2023-08-20T11:58:58;8.65;;;4.90;;
19651;SDS011;9974;52.146;14.668;2023-08-20T12:01:25;6.82;;;5.10;;
19651;SDS011;9974;52.146;14.668;2023-08-20T12:03:58;5.90;;;4.35;;
19651;SDS011;9974;52.146;14.668;2023-08-20T12:06:35;5.13;;;4.15;;
19651;SDS011;9974;52.146;14.668;2023-08-20T12:09:17;5.43;;;4.35;;
19651;SDS011;9974;52.146;14.668;2023-08-20T12:11:52;5.45;;;4.07;;
19651;SDS011;9974;52.146;14.668;2023-08-20T12:14:20;5.32;;;3.60;;
19651;SDS011;9974;52.146;14.668;2023-08-20T12:16:46;6.45;;;3.67;;
19651;SDS011;9974;52.146;14.668;2023-08-20T12:19:13;4.18;;;3.00;;
19651;SDS011;9974;52.146;14.668;2023-08-20T12:21:39;5.18;;;3.38;;
19651;SDS011;9974;52.146;14.668;2023-08-20T12:24:07;6.35;;;3.70;;
19651;SDS011;9974;52.146;14.668;2023-08-20T12:26:33;5.25;;;3.58;;
19651;SDS011;9974;52.146;14.668;2023-08-20T12:28:59;6.00;;;4.22;;
19651;SDS011;9974;52.146;14.668;2023-08-20T12:31:24;5.65;;;3.92;;
19651;SDS011;9974;52.146;14.668;2023-08-20T12:33:50;5.00;;;4.22;;
19651;SDS011;9974;52.146;14.668;2023-08-20T12:36:16;5.35;;;4.03;;
19651;SDS011;9974;52.146;14.668;2023-08-20T12:38:41;5.03;;;3.70;;
19651;SDS011;9974;52.146;14.668;2023-08-20T12:41:07;5.22;;;3.85;;
19651;SDS011;9974;52.146;14.668;2023-08-20T12:43:33;5.28;;;3.35;;
19651;SDS011;9974;52.146;14.668;2023-08-20T12:45:58;4.00;;;3.25;;
19651;SDS011;9974;52.146;14.668;2023-08-20T12:48:24;6.05;;;3.83;;
19651;SDS011;9974;52.146;14.668;2023-08-20T12:50:50;3.83;;;2.67;;
19651;SDS011;9974;52.146;14.668;2023-08-20T12:53:15;3.17;;;2.55;;
19651;SDS011;9974;52.146;14.668;2023-08-20T12:55:41;4.65;;;3.00;;
19651;SDS011;9974;52.146;14.668;2023-08-20T12:58:07;5.47;;;3.33;;
19651;SDS011;9974;52.146;14.668;2023-08-20T13:00:33;5.45;;;3.60;;
19651;SDS011;9974;52.146;14.668;2023-08-20T13:02:59;4.03;;;3.20;;
19651;SDS011;9974;52.146;14.668;2023-08-20T13:05:25;3.88;;;3.10;;
19651;SDS011;9974;52.146;14.668;2023-08-20T13:07:52;3.63;;;2.75;;
19651;SDS011;9974;52.146;14.668;2023-08-20T13:10:18;3.45;;;2.78;;
19651;SDS011;9974;52.146;14.668;2023-08-20T13:12:47;3.08;;;2.25;;
19651;SDS011;9974;52.146;14.668;2023-08-20T13:15:18;3.92;;;2.17;;
19651;SDS011;9974;52.146;14.668;2023-08-20T13:17:46;3.15;;;2.22;;
19651;SDS011;9974;52.146;14.668;2023-08-20T13:20:14;3.95;;;2.50;;
19651;SDS011;9974;52.146;14.668;2023-08-20T13:22:46;4.15;;;3.05;;
19651;SDS011;9974;52.146;14.668;2023-08-20T13:25:16;3.78;;;2.90;;
19651;SDS011;9974;52.146;14.668;2023-08-20T13:27:42;4.53;;;3.00;;
19651;SDS011;9974;52.146;14.668;2023-08-20T13:30:08;4.47;;;2.95;;
19651;SDS011;9974;52.146;14.668;2023-08-20T13:32:35;5.72;;;3.45;;
19651;SDS011;9974;52.146;14.668;2023-08-20T13:35:02;4.28;;;2.72;;
19651;SDS011;9974;52.146;14.668;2023-08-20T13:37:31;5.20;;;2.70;;
19651;SDS011;9974;52.146;14.668;2023-08-20T13:39:57;5.20;;;3.20;;
19651;SDS011;9974;52.146;14.668;2023-08-20T13:42:23;5.38;;;3.60;;
19651;SDS011;9974;52.146;14.668;2023-08-20T13:44:49;4.55;;;3.53;;
19651;SDS011;9974;52.146;14.668;2023-08-20T13:47:15;4.75;;;3.20;;
19651;SDS011;9974;52.146;14.668;2023-08-20T13:49:41;4.22;;;2.88;;
19651;SDS011;9974;52.146;14.668;2023-08-20T13:52:07;4.20;;;2.95;;
19651;SDS011;9974;52.146;14.668;2023-08-20T13:54:34;4.28;;;3.28;;
19651;SDS011;9974;52.146;14.668;2023-08-20T13:57:01;4.97;;;3.42;;
19651;SDS011;9974;52.146;14.668;2023-08-20T13:59:28;5.45;;;3.53;;
19651;SDS011;9974;52.146;14.668;2023-08-20T14:01:54;4.10;;;3.05;;
19651;SDS011;9974;52.146;14.668;2023-08-20T14:04:20;3.95;;;3.00;;
19651;SDS011;9974;52.146;14.668;2023-08-20T14:06:46;5.82;;;3.17;;
19651;SDS011;9974;52.146;14.668;2023-08-20T14:09:11;7.03;;;2.88;;
19651;SDS011;9974;52.146;14.668;2023-08-20T14:11:37;4.65;;;2.85;;
19651;SDS011;9974;52.146;14.668;2023-08-20T14:14:03;4.82;;;3.55;;
19651;SDS011;9974;52.146;14.668;2023-08-20T14:16:29;5.88;;;3.10;;
19651;SDS011;9974;52.146;14.668;2023-08-20T14:18:54;4.32;;;3.17;;
19651;SDS011;9974;52.146;14.668;2023-08-20T14:21:20;4.47;;;3.53;;
19651;SDS011;9974;52.146;14.668;2023-08-20T14:23:46;4.97;;;3.35;;
19651;SDS011;9974;52.146;14.668;2023-08-20T14:26:11;4.88;;;3.10;;
19651;SDS011;9974;52.146;14.668;2023-08-20T14:28:37;5.50;;;3.50;;
19651;SDS011;9974;52.146;14.668;2023-08-20T14:31:03;8.00;;;3.67;;
19651;SDS011;9974;52.146;14.668;2023-08-20T14:33:30;4.05;;;3.20;;
19651;SDS011;9974;52.146;14.668;2023-08-20T14:35:56;6.63;;;3.60;;
19651;SDS011;9974;52.146;14.668;2023-08-20T14:38:21;4.05;;;3.05;;
19651;SDS011;9974;52.146;14.668;2023-08-20T14:40:47;5.60;;;4.38;;
19651;SDS011;9974;52.146;14.668;2023-08-20T14:43:13;4.57;;;3.22;;
19651;SDS011;9974;52.146;14.668;2023-08-20T14:45:38;7.93;;;3.90;;
19651;SDS011;9974;52.146;14.668;2023-08-20T14:48:04;5.13;;;3.50;;
19651;SDS011;9974;52.146;14.668;2023-08-20T14:50:30;7.03;;;4.57;;